createdAt,value
2022-08-24T00:01:37.669Z,16.52
2022-08-24T00:06:39.767Z,16.79
2022-08-24T00:11:42.156Z,16.88
2022-08-24T00:16:44.515Z,16.87
2022-08-24T00:21:46.824Z,16.61
2022-08-24T00:26:49.046Z,16.65
2022-08-24T00:31:51.307Z,16.80
2022-08-24T00:36:54.229Z,16.60
2022-08-24T00:41:56.347Z,16.69
2022-08-24T00:47:17.095Z,16.93
2022-08-24T00:52:25.875Z,17.16
2022-08-24T00:57:34.154Z,16.98
2022-08-24T01:02:42.387Z,17.19
2022-08-24T01:07:45.501Z,17.41
2022-08-24T01:12:59.923Z,17.16
2022-08-24T01:18:21.379Z,17.07
2022-08-24T01:23:45.666Z,17.23
2022-08-24T01:28:51.902Z,17.31
2022-08-24T01:33:55.528Z,17.29
2022-08-24T01:39:04.253Z,17.36
2022-08-24T01:44:07.216Z,17.48
2022-08-24T01:49:10.482Z,17.28
2022-08-24T01:54:14.378Z,17.32
2022-08-24T01:59:17.739Z,17.28
2022-08-24T02:04:20.714Z,17.64
2022-08-24T02:09:23.404Z,17.57
2022-08-24T02:14:33.013Z,17.80
2022-08-24T02:19:38.328Z,18.02
2022-08-24T02:24:41.654Z,17.98
2022-08-24T02:29:44.469Z,17.93
2022-08-24T02:34:46.913Z,17.99
2022-08-24T02:39:49.813Z,17.96
2022-08-24T02:44:55.421Z,18.08
2022-08-24T02:49:57.895Z,18.23
2022-08-24T02:55:00.767Z,17.93
2022-08-24T03:00:10.066Z,17.99
2022-08-24T03:05:15.712Z,17.79
2022-08-24T03:10:18.489Z,18.09
2022-08-24T03:15:24.651Z,17.76
2022-08-24T03:20:27.411Z,17.94
2022-08-24T03:25:33.836Z,17.97
2022-08-24T03:30:36.142Z,17.80
2022-08-24T03:35:39.304Z,17.59
2022-08-24T03:40:42.293Z,17.84
2022-08-24T03:45:45.417Z,17.58
2022-08-24T03:50:47.850Z,17.58
2022-08-24T03:55:50.297Z,17.70
2022-08-24T04:00:52.756Z,17.52
2022-08-24T04:05:55.120Z,17.79
2022-08-24T04:10:58.900Z,18.26
2022-08-24T04:16:06.841Z,18.45
2022-08-24T04:21:21.360Z,18.48
2022-08-24T04:26:44.780Z,18.53
2022-08-24T04:31:51.544Z,18.56
2022-08-24T04:36:53.973Z,18.49
2022-08-24T04:41:57.477Z,18.87
2022-08-24T04:47:08.604Z,19.03
2022-08-24T04:52:12.622Z,19.34
2022-08-24T04:57:18.304Z,19.37
2022-08-24T05:02:22.351Z,19.35
2022-08-24T05:07:26.593Z,19.40
2022-08-24T05:12:29.090Z,19.06
2022-08-24T05:17:35.571Z,19.22
2022-08-24T05:22:38.150Z,19.46
2022-08-24T05:27:40.572Z,19.36
2022-08-24T05:32:48.101Z,19.31
2022-08-24T05:37:50.722Z,19.50
2022-08-24T05:42:54.390Z,19.63
2022-08-24T05:47:57.510Z,19.47
2022-08-24T05:53:18.309Z,19.80
2022-08-24T05:58:22.966Z,19.84
2022-08-24T06:03:36.286Z,19.72
2022-08-24T06:08:42.766Z,19.98
2022-08-24T06:13:46.493Z,20.00
2022-08-24T06:18:56.908Z,20.18
2022-08-24T06:24:01.981Z,20.18
2022-08-24T06:29:05.112Z,20.35
2022-08-24T06:34:32.528Z,20.34
2022-08-24T06:39:36.079Z,20.30
2022-08-24T06:44:39.640Z,20.28
2022-08-24T06:49:50.805Z,20.29
2022-08-24T06:54:53.472Z,20.23
2022-08-24T06:59:56.149Z,20.35
2022-08-24T07:04:58.868Z,20.34
2022-08-24T07:10:34.681Z,20.00
2022-08-24T07:15:37.283Z,19.99
2022-08-24T07:20:47.768Z,19.98
2022-08-24T07:26:18.828Z,20.10
2022-08-24T07:31:25.232Z,19.99
2022-08-24T07:36:44.740Z,20.18
2022-08-24T07:47:34.745Z,20.05
2022-08-24T07:52:33.553Z,20.19
2022-08-24T07:57:38.701Z,20.65
2022-08-24T08:02:46.622Z,20.95
2022-08-24T08:07:52.413Z,21.02
2022-08-24T08:12:56.050Z,21.02
2022-08-24T08:17:59.064Z,20.91
2022-08-24T08:23:19.791Z,21.17
2022-08-24T08:28:36.234Z,21.20
2022-08-24T08:33:40.802Z,21.13
2022-08-24T08:38:44.517Z,21.11
2022-08-24T08:44:06.092Z,21.20
2022-08-24T08:49:45.217Z,21.18
2022-08-24T08:55:18.529Z,20.92
2022-08-24T09:00:56.606Z,21.08
2022-08-24T09:06:36.863Z,21.00
2022-08-24T09:11:50.579Z,21.51
2022-08-24T09:17:12.969Z,21.60
2022-08-24T09:22:18.298Z,21.80
2022-08-24T09:27:38.401Z,21.79
2022-08-24T09:32:59.200Z,22.14
2022-08-24T09:38:36.011Z,21.98
2022-08-24T09:44:26.597Z,22.05
2022-08-24T09:50:05.130Z,22.33
2022-08-24T09:55:16.873Z,22.29
2022-08-24T10:00:28.038Z,22.03
2022-08-24T10:05:56.639Z,22.10
2022-08-24T10:11:34.388Z,21.76
2022-08-24T10:17:14.325Z,21.71
2022-08-24T10:22:16.601Z,21.80
2022-08-24T10:27:53.934Z,21.57
2022-08-24T10:33:10.626Z,21.59
2022-08-24T10:38:50.895Z,21.67
2022-08-24T10:44:37.065Z,21.72
2022-08-24T10:50:06.671Z,21.80
2022-08-24T10:55:27.142Z,22.10
2022-08-24T11:00:30.717Z,22.16
2022-08-24T11:05:50.188Z,22.35
2022-08-24T11:11:04.978Z,22.60
2022-08-24T11:16:07.681Z,22.61
2022-08-24T11:21:10.217Z,22.70
2022-08-24T11:26:21.675Z,22.72
2022-08-24T11:31:41.225Z,22.74
2022-08-24T11:36:43.629Z,22.88
2022-08-24T11:41:56.293Z,22.80
2022-08-24T11:47:06.149Z,23.21
2022-08-24T11:52:18.756Z,23.13
2022-08-24T11:57:26.808Z,22.89
2022-08-24T12:02:39.519Z,23.07
2022-08-24T12:07:51.001Z,23.69
2022-08-24T12:13:26.339Z,24.01
2022-08-24T12:19:06.152Z,24.13
2022-08-24T12:24:29.598Z,24.44
2022-08-24T12:29:53.907Z,24.54
2022-08-24T12:35:02.964Z,24.26
2022-08-24T12:40:26.393Z,23.96
2022-08-24T12:45:30.359Z,23.69
2022-08-24T12:50:53.926Z,24.00
2022-08-24T12:56:06.459Z,24.56
2022-08-24T13:01:13.625Z,24.50
2022-08-24T13:06:49.325Z,25.12
2022-08-24T13:11:52.336Z,25.62
2022-08-24T13:16:57.292Z,25.33
2022-08-24T13:22:38.507Z,25.31
2022-08-24T13:27:41.804Z,25.63
2022-08-24T13:32:49.714Z,25.70
2022-08-24T13:38:39.842Z,25.96
2022-08-24T13:43:44.967Z,26.08
2022-08-24T13:49:02.070Z,26.13
2022-08-24T13:54:45.435Z,26.24
2022-08-24T14:00:01.961Z,25.79
2022-08-24T14:05:28.064Z,25.90
2022-08-24T14:10:59.718Z,26.38
2022-08-24T14:16:26.508Z,26.82
2022-08-24T14:21:46.834Z,26.36
2022-08-24T14:27:00.548Z,26.79
2022-08-24T14:32:12.553Z,26.62
2022-08-24T14:37:16.569Z,26.45
2022-08-24T14:42:59.614Z,26.07
2022-08-24T14:48:19.826Z,26.05
2022-08-24T14:53:40.294Z,25.98
2022-08-24T14:59:14.802Z,25.82
2022-08-24T15:04:42.881Z,25.95
2022-08-24T15:09:45.972Z,25.66
2022-08-24T15:14:53.650Z,25.95
2022-08-24T15:20:20.204Z,25.84
2022-08-24T15:25:43.010Z,25.70
2022-08-24T15:30:56.092Z,25.40
2022-08-24T15:36:13.351Z,25.25
2022-08-24T15:41:30.755Z,25.26
2022-08-24T15:46:37.399Z,25.11
2022-08-24T15:52:06.520Z,25.10
2022-08-24T15:57:31.088Z,24.85
2022-08-24T16:02:37.081Z,24.59
2022-08-24T16:08:02.794Z,24.23
2022-08-24T16:13:28.573Z,23.96
2022-08-24T16:18:55.545Z,23.78
2022-08-24T16:24:20.801Z,23.04
2022-08-24T16:29:35.313Z,22.83
2022-08-24T16:34:40.765Z,22.88
2022-08-24T16:39:43.595Z,22.49
2022-08-24T16:44:45.837Z,22.45
2022-08-24T16:49:48.950Z,22.41
2022-08-24T16:54:51.538Z,22.30
2022-08-24T16:59:53.921Z,21.91
2022-08-24T17:04:56.640Z,21.61
2022-08-24T17:10:03.001Z,21.67
2022-08-24T17:15:07.126Z,21.64
2022-08-24T17:20:11.359Z,21.33
2022-08-24T17:25:13.539Z,21.44
2022-08-24T17:30:20.414Z,21.50
2022-08-24T17:35:24.618Z,21.33
2022-08-24T17:40:30.276Z,21.15
2022-08-24T17:45:32.613Z,20.93
2022-08-24T17:50:35.977Z,21.01
2022-08-24T17:55:38.364Z,20.92
2022-08-24T18:00:40.588Z,20.97
2022-08-24T18:05:42.942Z,21.29
2022-08-24T18:10:45.544Z,21.37
2022-08-24T18:15:50.188Z,21.12
2022-08-24T18:20:52.618Z,20.90
2022-08-24T18:25:54.787Z,20.69
2022-08-24T18:30:57.029Z,20.45
2022-08-24T18:35:59.231Z,20.43
2022-08-24T18:41:02.084Z,20.57
2022-08-24T18:46:05.540Z,20.64
2022-08-24T18:51:07.976Z,20.92
2022-08-24T18:56:12.653Z,20.85
2022-08-24T19:01:15.149Z,20.53
2022-08-24T19:06:17.968Z,20.02
2022-08-24T19:11:24.206Z,19.78
2022-08-24T19:16:26.642Z,20.01
2022-08-24T19:21:33.876Z,20.18
2022-08-24T19:26:37.023Z,19.76
2022-08-24T19:31:39.292Z,19.79
2022-08-24T19:36:42.375Z,19.98
2022-08-24T19:41:48.885Z,19.82
2022-08-24T19:46:51.794Z,19.52
2022-08-24T19:51:54.946Z,19.59
2022-08-24T19:56:59.952Z,19.41
2022-08-24T20:02:02.361Z,19.60
2022-08-24T20:07:04.731Z,19.60
2022-08-24T20:12:07.200Z,19.52
2022-08-24T20:17:09.507Z,19.30
2022-08-24T20:22:20.440Z,19.21
2022-08-24T20:27:26.955Z,19.06
2022-08-24T20:32:29.739Z,18.94
2022-08-24T20:37:33.701Z,19.01
2022-08-24T20:42:35.780Z,19.32
2022-08-24T20:47:52.218Z,19.47
2022-08-24T20:52:55.841Z,19.49
2022-08-24T20:58:03.746Z,19.51
2022-08-24T21:03:05.972Z,19.48
2022-08-24T21:08:08.487Z,19.58
2022-08-24T21:13:11.100Z,19.75
2022-08-24T21:18:13.525Z,19.75
2022-08-24T21:23:15.751Z,19.57
2022-08-24T21:28:20.217Z,19.36
2022-08-24T21:33:40.806Z,19.38
2022-08-24T21:38:45.239Z,19.46
2022-08-24T21:43:47.671Z,19.36
2022-08-24T21:48:49.813Z,19.57
2022-08-24T21:53:52.196Z,19.72
2022-08-24T21:59:00.717Z,19.65
2022-08-24T22:04:03.004Z,19.46
2022-08-24T22:09:05.832Z,19.61
2022-08-24T22:14:08.191Z,19.37
2022-08-24T22:19:11.562Z,19.43
2022-08-24T22:24:13.749Z,19.42
2022-08-24T22:29:16.148Z,19.37
2022-08-24T22:34:20.840Z,19.48
2022-08-24T22:39:23.470Z,19.46
2022-08-24T22:44:27.910Z,19.39
2022-08-24T22:49:33.047Z,19.13
2022-08-24T22:54:35.542Z,19.30
2022-08-24T22:59:41.936Z,19.10
2022-08-24T23:04:47.231Z,18.98
2022-08-24T23:09:49.829Z,19.04
2022-08-24T23:14:52.927Z,19.02
2022-08-24T23:20:01.263Z,18.94
2022-08-24T23:25:05.315Z,19.03
2022-08-24T23:30:12.553Z,19.03
2022-08-24T23:35:14.797Z,19.09
2022-08-24T23:40:19.097Z,19.13
2022-08-24T23:45:28.416Z,19.32
2022-08-24T23:50:33.788Z,19.21
2022-08-24T23:55:36.767Z,19.28
